createdAt,value
2018-08-16T00:00:54.216Z,19.24
2018-08-16T00:01:54.720Z,19.27
2018-08-16T00:02:54.465Z,19.39
2018-08-16T00:03:54.750Z,19.36
2018-08-16T00:04:54.785Z,19.3
2018-08-16T00:05:54.476Z,19.45
2018-08-16T00:06:54.486Z,19.3
2018-08-16T00:07:54.231Z,19.33
2018-08-16T00:08:54.726Z,19.31
2018-08-16T00:09:54.222Z,19.37
2018-08-16T00:10:54.734Z,19.34
2018-08-16T00:11:54.726Z,19.34
2018-08-16T00:12:54.656Z,19.4
2018-08-16T00:13:54.777Z,19.34
2018-08-16T00:14:54.725Z,19.39
2018-08-16T00:15:54.478Z,19.34
2018-08-16T00:16:54.241Z,19.27
2018-08-16T00:17:54.753Z,19.26
2018-08-16T00:18:54.232Z,19.22
2018-08-16T00:19:54.480Z,19.24
2018-08-16T00:20:54.488Z,19.24
2018-08-16T00:21:54.242Z,19.21
2018-08-16T00:22:54.743Z,19.18
2018-08-16T00:23:54.510Z,19.16
2018-08-16T00:24:54.487Z,19.12
2018-08-16T00:25:54.747Z,19.15
2018-08-16T00:26:54.486Z,19.11
2018-08-16T00:27:54.756Z,19.11
2018-08-16T00:28:54.239Z,19.14
2018-08-16T00:29:54.756Z,19.04
2018-08-16T00:30:54.743Z,19
2018-08-16T00:31:54.755Z,18.95
2018-08-16T00:32:54.504Z,18.96
2018-08-16T00:33:54.498Z,18.83
2018-08-16T00:34:54.499Z,18.98
2018-08-16T00:35:54.500Z,18.84
2018-08-16T00:36:54.749Z,18.78
2018-08-16T00:37:54.752Z,18.88
2018-08-16T00:38:54.503Z,18.83
2018-08-16T00:39:54.495Z,18.75
2018-08-16T00:40:54.784Z,18.83
2018-08-16T00:41:54.766Z,18.78
2018-08-16T00:42:54.503Z,18.86
2018-08-16T00:43:54.765Z,18.81
2018-08-16T00:44:54.515Z,18.86
2018-08-16T00:45:54.759Z,18.77
2018-08-16T00:46:54.499Z,18.77
2018-08-16T00:47:54.773Z,18.74
2018-08-16T00:48:54.510Z,18.7
2018-08-16T00:49:54.513Z,18.77
2018-08-16T00:50:54.514Z,18.73
2018-08-16T00:51:54.521Z,18.8
2018-08-16T00:52:54.832Z,18.78
2018-08-16T00:53:54.770Z,18.78
2018-08-16T00:54:54.512Z,18.92
2018-08-16T00:55:54.775Z,18.86
2018-08-16T00:56:54.768Z,18.95
2018-08-16T00:57:54.516Z,18.95
2018-08-16T00:58:54.769Z,18.89
2018-08-16T00:59:54.775Z,18.81
2018-08-16T01:00:54.514Z,18.81
2018-08-16T01:01:54.511Z,18.78
2018-08-16T01:02:54.768Z,18.83
2018-08-16T01:03:54.924Z,18.71
2018-08-16T01:04:54.773Z,18.84
2018-08-16T01:05:54.516Z,18.78
2018-08-16T01:06:54.528Z,18.77
2018-08-16T01:07:54.532Z,18.83
2018-08-16T01:08:54.268Z,18.77
2018-08-16T01:09:54.528Z,18.71
2018-08-16T01:10:54.775Z,18.71
2018-08-16T01:11:54.530Z,18.7
2018-08-16T01:12:54.783Z,18.62
2018-08-16T01:13:54.778Z,18.59
2018-08-16T01:14:54.776Z,18.7
2018-08-16T01:15:54.780Z,18.73
2018-08-16T01:16:54.780Z,18.63
2018-08-16T01:17:54.788Z,18.58
2018-08-16T01:18:54.786Z,18.5
2018-08-16T01:19:54.801Z,18.52
2018-08-16T01:20:54.790Z,18.62
2018-08-16T01:21:54.528Z,18.55
2018-08-16T01:22:54.550Z,18.63
2018-08-16T01:23:54.529Z,18.66
2018-08-16T01:24:54.791Z,18.68
2018-08-16T01:25:54.797Z,18.7
2018-08-16T01:26:54.276Z,18.71
2018-08-16T01:27:54.526Z,18.73
2018-08-16T01:28:54.537Z,18.86
2018-08-16T01:29:54.791Z,18.68
2018-08-16T01:30:54.286Z,18.78
2018-08-16T01:31:54.534Z,18.7
2018-08-16T01:32:54.561Z,18.59
2018-08-16T01:33:55.583Z,18.58
2018-08-16T01:34:54.547Z,18.66
2018-08-16T01:35:54.536Z,18.74
2018-08-16T01:36:54.803Z,18.75
2018-08-16T01:37:54.539Z,18.81
2018-08-16T01:38:54.556Z,18.86
2018-08-16T01:39:54.532Z,18.83
2018-08-16T01:40:54.788Z,18.84
2018-08-16T01:41:54.793Z,18.92
2018-08-16T01:42:54.791Z,18.96
2018-08-16T01:43:54.540Z,18.99
2018-08-16T01:44:54.795Z,19.09
2018-08-16T01:45:54.793Z,19.02
2018-08-16T01:46:54.787Z,19.09
2018-08-16T01:47:54.835Z,19.07
2018-08-16T01:48:54.797Z,19.07
2018-08-16T01:49:54.532Z,18.95
2018-08-16T01:50:54.547Z,18.95
2018-08-16T01:51:54.540Z,18.96
2018-08-16T01:52:54.791Z,18.84
2018-08-16T01:53:54.543Z,18.84
2018-08-16T01:54:54.793Z,18.86
2018-08-16T01:55:54.542Z,18.84
2018-08-16T01:56:54.543Z,18.83
2018-08-16T01:57:54.819Z,18.92
2018-08-16T01:58:54.555Z,18.81
2018-08-16T01:59:54.553Z,18.78
2018-08-16T02:00:54.817Z,18.71
2018-08-16T02:01:54.800Z,18.75
2018-08-16T02:02:54.552Z,18.73
2018-08-16T02:03:54.813Z,18.68
2018-08-16T02:04:54.814Z,18.73
2018-08-16T02:05:54.821Z,18.77
2018-08-16T02:06:54.807Z,18.71
2018-08-16T02:07:54.830Z,18.88
2018-08-16T02:08:54.554Z,18.78
2018-08-16T02:09:54.296Z,18.84
2018-08-16T02:10:54.809Z,18.88
2018-08-16T02:11:54.572Z,18.81
2018-08-16T02:12:54.751Z,18.83
2018-08-16T02:13:54.550Z,18.81
2018-08-16T02:14:54.552Z,18.71
2018-08-16T02:15:54.296Z,18.68
2018-08-16T02:16:54.814Z,18.7
2018-08-16T02:17:54.551Z,18.63
2018-08-16T02:18:54.817Z,18.68
2018-08-16T02:19:54.296Z,18.68
2018-08-16T02:20:54.822Z,18.63
2018-08-16T02:21:54.819Z,18.71
2018-08-16T02:22:54.813Z,18.68
2018-08-16T02:23:54.824Z,18.7
2018-08-16T02:24:54.561Z,18.53
2018-08-16T02:25:54.825Z,18.55
2018-08-16T02:26:54.561Z,18.53
2018-08-16T02:27:54.843Z,18.55
2018-08-16T02:28:54.842Z,18.53
2018-08-16T02:29:54.589Z,18.45
2018-08-16T02:30:54.560Z,18.41
2018-08-16T02:31:54.590Z,18.49
2018-08-16T02:32:54.830Z,18.44
2018-08-16T02:33:54.834Z,18.37
2018-08-16T02:34:54.578Z,18.35
2018-08-16T02:35:54.826Z,18.34
2018-08-16T02:36:54.829Z,18.31
2018-08-16T02:37:54.844Z,18.25
2018-08-16T02:38:54.578Z,18.2
2018-08-16T02:39:54.576Z,18.25
2018-08-16T02:40:54.829Z,18.2
2018-08-16T02:41:54.828Z,18.11
2018-08-16T02:42:54.834Z,18.07
2018-08-16T02:43:54.830Z,18.13
2018-08-16T02:44:54.860Z,18.1
2018-08-16T02:45:54.831Z,18.13
2018-08-16T02:46:54.583Z,18.03
2018-08-16T02:47:54.315Z,18.07
2018-08-16T02:48:54.829Z,17.9
2018-08-16T02:49:54.578Z,17.87
2018-08-16T02:50:54.923Z,17.87
2018-08-16T02:51:54.820Z,17.92
2018-08-16T02:52:54.574Z,17.94
2018-08-16T02:53:54.572Z,18.05
2018-08-16T02:54:54.630Z,18.03
2018-08-16T02:55:54.578Z,18.1
2018-08-16T02:56:54.340Z,18.16
2018-08-16T02:57:54.581Z,18.18
2018-08-16T02:58:54.569Z,18.11
2018-08-16T02:59:54.577Z,18.16
2018-08-16T03:00:54.585Z,18.1
2018-08-16T03:01:54.836Z,18.08
2018-08-16T03:02:54.574Z,18.08
2018-08-16T03:03:54.593Z,18.11
2018-08-16T03:04:54.319Z,18.13
2018-08-16T03:05:54.840Z,18.1
2018-08-16T03:06:54.587Z,18.18
2018-08-16T03:07:54.583Z,18.08
2018-08-16T03:08:54.318Z,18.13
2018-08-16T03:09:54.344Z,18.18
2018-08-16T03:10:54.575Z,18.23
2018-08-16T03:11:54.575Z,18.08
2018-08-16T03:12:54.579Z,18.2
2018-08-16T03:13:54.594Z,18.11
2018-08-16T03:14:54.585Z,18.04
2018-08-16T03:15:54.344Z,18.08
2018-08-16T03:16:54.843Z,17.9
2018-08-16T03:17:54.839Z,17.9
2018-08-16T03:18:54.830Z,17.94
2018-08-16T03:19:54.844Z,17.89
2018-08-16T03:20:54.835Z,17.95
2018-08-16T03:21:54.836Z,17.98
2018-08-16T03:22:54.579Z,18
2018-08-16T03:23:54.587Z,17.89
2018-08-16T03:24:54.586Z,17.9
2018-08-16T03:25:54.600Z,17.86
2018-08-16T03:26:54.332Z,17.79
2018-08-16T03:27:54.329Z,17.79
2018-08-16T03:28:54.324Z,17.82
2018-08-16T03:29:54.840Z,17.82
2018-08-16T03:30:54.591Z,17.86
2018-08-16T03:31:54.912Z,17.8
2018-08-16T03:32:54.867Z,17.82
2018-08-16T03:33:54.844Z,17.76
2018-08-16T03:34:54.841Z,17.78
2018-08-16T03:35:54.905Z,17.72
2018-08-16T03:36:54.594Z,17.68
2018-08-16T03:37:54.895Z,17.68
2018-08-16T03:38:54.606Z,17.7
2018-08-16T03:39:54.584Z,17.63
2018-08-16T03:40:54.861Z,17.72
2018-08-16T03:41:54.591Z,17.72
2018-08-16T03:42:54.846Z,17.74
2018-08-16T03:43:54.847Z,17.7
2018-08-16T03:44:54.846Z,17.76
2018-08-16T03:45:54.594Z,17.79
2018-08-16T03:46:54.844Z,17.74
2018-08-16T03:47:54.595Z,17.72
2018-08-16T03:48:54.578Z,17.76
2018-08-16T03:49:54.839Z,17.83
2018-08-16T03:50:54.845Z,17.72
2018-08-16T03:51:54.589Z,17.74
2018-08-16T03:52:54.588Z,17.7
2018-08-16T03:53:54.843Z,17.7
2018-08-16T03:54:54.853Z,17.65
2018-08-16T03:55:54.844Z,17.59
2018-08-16T03:56:54.573Z,17.64
2018-08-16T03:57:54.841Z,17.7
2018-08-16T03:58:54.575Z,17.64
2018-08-16T03:59:54.584Z,17.65
2018-08-16T04:00:54.594Z,17.7
2018-08-16T04:01:54.574Z,17.68
2018-08-16T04:02:54.845Z,17.65
2018-08-16T04:03:54.848Z,17.57
2018-08-16T04:04:54.326Z,17.45
2018-08-16T04:05:54.851Z,17.54
2018-08-16T04:06:54.852Z,17.49
2018-08-16T04:07:54.586Z,17.39
2018-08-16T04:08:54.594Z,17.46
2018-08-16T04:09:54.576Z,17.41
2018-08-16T04:10:54.846Z,17.51
2018-08-16T04:11:54.844Z,17.46
2018-08-16T04:12:54.576Z,17.57
2018-08-16T04:13:54.597Z,17.44
2018-08-16T04:14:54.580Z,17.51
2018-08-16T04:15:54.578Z,17.45
2018-08-16T04:16:54.846Z,17.38
2018-08-16T04:17:54.578Z,17.42
2018-08-16T04:18:54.586Z,17.49
2018-08-16T04:19:54.317Z,17.39
2018-08-16T04:20:54.835Z,17.51
2018-08-16T04:21:54.846Z,17.52
2018-08-16T04:22:54.577Z,17.44
2018-08-16T04:23:54.841Z,17.51
2018-08-16T04:24:54.576Z,17.46
2018-08-16T04:25:54.595Z,17.48
2018-08-16T04:26:54.571Z,17.49
2018-08-16T04:27:54.578Z,17.48
2018-08-16T04:28:54.602Z,17.6
2018-08-16T04:29:54.588Z,17.56
2018-08-16T04:30:54.580Z,17.63
2018-08-16T04:31:54.569Z,17.68
2018-08-16T04:32:54.582Z,17.67
2018-08-16T04:33:54.324Z,17.72
2018-08-16T04:34:54.571Z,17.76
2018-08-16T04:35:54.590Z,17.72
2018-08-16T04:36:54.590Z,17.83
2018-08-16T04:37:54.836Z,17.83
2018-08-16T04:38:55.129Z,17.78
2018-08-16T04:39:54.581Z,17.74
2018-08-16T04:40:54.575Z,17.94
2018-08-16T04:41:54.753Z,17.87
2018-08-16T04:42:54.881Z,17.86
2018-08-16T04:43:54.583Z,17.9
2018-08-16T04:44:54.827Z,17.87
2018-08-16T04:45:54.824Z,18.04
2018-08-16T04:46:54.841Z,18.11
2018-08-16T04:47:54.572Z,18.18
2018-08-16T04:48:54.833Z,18.29
2018-08-16T04:49:54.565Z,18.31
2018-08-16T04:50:54.563Z,18.34
2018-08-16T04:51:54.574Z,18.56
2018-08-16T04:52:54.821Z,18.71
2018-08-16T04:53:54.568Z,18.71
2018-08-16T04:54:54.830Z,18.81
2018-08-16T04:55:54.607Z,18.96
2018-08-16T04:56:54.635Z,19.09
2018-08-16T04:57:54.831Z,19.18
2018-08-16T04:58:54.583Z,19.22
2018-08-16T04:59:54.579Z,19.16
2018-08-16T05:00:54.581Z,19.21
2018-08-16T05:01:54.593Z,19.34
2018-08-16T05:02:54.579Z,19.45
2018-08-16T05:03:54.581Z,19.54
2018-08-16T05:04:54.583Z,19.7
2018-08-16T05:05:54.343Z,19.81
2018-08-16T05:06:54.857Z,19.95
2018-08-16T05:07:54.590Z,20.07
2018-08-16T05:08:54.343Z,20.19
2018-08-16T05:09:54.601Z,20.31
2018-08-16T05:10:54.636Z,20.34
2018-08-16T05:11:54.854Z,20.28
2018-08-16T05:12:54.860Z,20.31
2018-08-16T05:13:54.358Z,20.26
2018-08-16T05:14:54.393Z,20.31
2018-08-16T05:15:54.361Z,20.36
2018-08-16T05:16:54.870Z,20.52
2018-08-16T05:17:54.348Z,20.59
2018-08-16T05:18:54.357Z,20.62
2018-08-16T05:19:54.622Z,20.65
2018-08-16T05:20:54.661Z,20.69
2018-08-16T05:21:54.383Z,20.67
2018-08-16T05:22:54.632Z,20.66
2018-08-16T05:23:55.045Z,20.7
2018-08-16T05:24:54.637Z,20.87
2018-08-16T05:25:54.906Z,21.11
2018-08-16T05:26:54.897Z,21.27
2018-08-16T05:27:54.893Z,21.46
2018-08-16T05:28:54.383Z,21.6
2018-08-16T05:29:54.385Z,21.58
2018-08-16T05:30:54.649Z,21.7
2018-08-16T05:31:54.683Z,21.67
2018-08-16T05:32:54.654Z,21.6
2018-08-16T05:33:55.473Z,21.55
2018-08-16T05:34:54.664Z,21.46
2018-08-16T05:35:54.917Z,21.36
2018-08-16T05:36:54.732Z,21.25
2018-08-16T05:37:54.925Z,20.97
2018-08-16T05:38:54.924Z,20.93
2018-08-16T05:39:54.934Z,20.72
2018-08-16T05:40:54.434Z,20.51
2018-08-16T05:41:54.428Z,20.58
2018-08-16T05:42:54.552Z,20.32
2018-08-16T05:43:54.439Z,20.29
2018-08-16T05:44:54.954Z,20.28
2018-08-16T05:45:54.944Z,20.13
2018-08-16T05:46:54.959Z,20.16
2018-08-16T05:47:54.436Z,20.19
2018-08-16T05:48:54.722Z,20.16
2018-08-16T05:49:54.703Z,20.13
2018-08-16T05:50:54.977Z,20.03
2018-08-16T05:51:54.972Z,20
2018-08-16T05:52:54.969Z,19.96
2018-08-16T05:53:54.967Z,19.94
2018-08-16T05:54:54.709Z,20.25
2018-08-16T05:55:54.453Z,20.19
2018-08-16T05:56:54.723Z,20.37
2018-08-16T05:57:54.973Z,20.29
2018-08-16T05:58:54.474Z,20.28
2018-08-16T05:59:54.748Z,20.28
2018-08-16T06:00:54.743Z,20.18
2018-08-16T06:01:55.002Z,20.14
2018-08-16T06:02:55.003Z,19.96
2018-08-16T06:03:54.743Z,19.92
2018-08-16T06:04:54.749Z,19.94
2018-08-16T06:05:55.007Z,19.99
2018-08-16T06:06:54.751Z,20.07
2018-08-16T06:07:54.746Z,20.26
2018-08-16T06:08:54.753Z,20.52
2018-08-16T06:09:55.003Z,20.85
2018-08-16T06:10:55.018Z,21.36
2018-08-16T06:11:54.751Z,21.67
2018-08-16T06:12:54.506Z,22.11
2018-08-16T06:13:54.797Z,22.45
2018-08-16T06:14:55.010Z,22.62
2018-08-16T06:15:54.503Z,22.47
2018-08-16T06:16:54.763Z,22.26
2018-08-16T06:17:54.795Z,22.2
2018-08-16T06:18:54.801Z,21.99
2018-08-16T06:19:54.519Z,21.79
2018-08-16T06:20:55.054Z,21.79
2018-08-16T06:21:55.036Z,21.93
2018-08-16T06:22:55.047Z,21.99
2018-08-16T06:23:54.832Z,22.35
2018-08-16T06:24:55.037Z,22.62
2018-08-16T06:25:54.808Z,23.15
2018-08-16T06:26:54.801Z,23.39
2018-08-16T06:27:55.056Z,23.76
2018-08-16T06:28:54.807Z,24.06
2018-08-16T06:29:54.804Z,24.42
2018-08-16T06:30:54.818Z,24.85
2018-08-16T06:31:54.816Z,25.21
2018-08-16T06:32:55.085Z,25.43
2018-08-16T06:33:54.575Z,25.58
2018-08-16T06:34:54.610Z,25.8
2018-08-16T06:35:54.837Z,26.16
2018-08-16T06:36:54.846Z,26.44
2018-08-16T06:37:55.108Z,26.71
2018-08-16T06:38:55.243Z,26.77
2018-08-16T06:39:54.894Z,26.66
2018-08-16T06:40:55.124Z,26.56
2018-08-16T06:41:54.870Z,26.52
2018-08-16T06:42:54.675Z,26.48
2018-08-16T06:43:54.893Z,26.63
2018-08-16T06:44:54.636Z,26.78
2018-08-16T06:45:55.140Z,26.95
2018-08-16T06:46:54.910Z,27
2018-08-16T06:47:55.166Z,27.2
2018-08-16T06:48:54.914Z,27.49
2018-08-16T06:49:54.661Z,27.51
2018-08-16T06:50:54.923Z,27.64
2018-08-16T06:51:55.213Z,27.8
2018-08-16T06:52:54.950Z,27.86
2018-08-16T06:53:54.948Z,28
2018-08-16T06:54:54.966Z,28.1
2018-08-16T06:55:55.216Z,28.22
2018-08-16T06:56:55.234Z,28.2
2018-08-16T06:57:54.703Z,28.19
2018-08-16T06:58:55.237Z,28.27
2018-08-16T06:59:54.980Z,28.26
2018-08-16T07:00:55.006Z,28.42
2018-08-16T07:01:55.002Z,28.63
2018-08-16T07:02:55.044Z,28.57
2018-08-16T07:03:55.276Z,28.45
2018-08-16T07:04:55.449Z,28.52
2018-08-16T07:05:55.278Z,28.66
2018-08-16T07:06:55.028Z,28.54
2018-08-16T07:07:55.063Z,28.88
2018-08-16T07:08:55.052Z,29.01
2018-08-16T07:09:55.046Z,29.1
2018-08-16T07:10:54.797Z,29.27
2018-08-16T07:11:55.096Z,29.57
2018-08-16T07:12:55.064Z,29.68
2018-08-16T07:13:54.814Z,29.84
2018-08-16T07:14:55.081Z,29.86
2018-08-16T07:15:55.092Z,29.71
2018-08-16T07:16:55.099Z,29.63
2018-08-16T07:17:55.099Z,29.44
2018-08-16T07:18:55.696Z,29.65
2018-08-16T07:19:55.374Z,29.72
2018-08-16T07:20:55.385Z,29.76
2018-08-16T07:21:55.133Z,29.79
2018-08-16T07:22:55.130Z,29.75
2018-08-16T07:23:55.146Z,29.88
2018-08-16T07:24:55.499Z,30.09
2018-08-16T07:25:55.159Z,30.27
2018-08-16T07:26:55.161Z,30.25
2018-08-16T07:27:55.203Z,30.3
2018-08-16T07:28:54.933Z,30.44
2018-08-16T07:29:55.594Z,30.8
2018-08-16T07:30:54.936Z,30.91
2018-08-16T07:31:55.212Z,30.9
2018-08-16T07:32:54.951Z,30.84
2018-08-16T07:33:55.229Z,30.61
2018-08-16T07:34:55.494Z,30.19
2018-08-16T07:35:55.249Z,29.56
2018-08-16T07:36:55.511Z,29.08
2018-08-16T07:37:55.037Z,28.57
2018-08-16T07:38:55.540Z,28.38
2018-08-16T07:39:55.279Z,27.87
2018-08-16T07:40:55.281Z,27.59
2018-08-16T07:41:55.556Z,27.29
2018-08-16T07:42:55.540Z,27.3
2018-08-16T07:43:55.048Z,27.52
2018-08-16T07:44:55.559Z,27.77
2018-08-16T07:45:56.274Z,27.8
2018-08-16T07:46:55.324Z,27.68
2018-08-16T07:47:55.585Z,27.64
2018-08-16T07:48:55.321Z,27.71
2018-08-16T07:49:55.324Z,27.85
2018-08-16T07:50:55.343Z,28.3
2018-08-16T07:51:55.745Z,28.56
2018-08-16T07:52:55.594Z,28.97
2018-08-16T07:53:55.345Z,29.49
2018-08-16T07:54:55.614Z,29.88
2018-08-16T07:55:55.365Z,30.03
2018-08-16T07:56:55.752Z,30.23
2018-08-16T07:57:55.633Z,30.43
2018-08-16T07:58:55.120Z,30.5
2018-08-16T07:59:55.640Z,30.8
2018-08-16T08:00:55.655Z,31.03
2018-08-16T08:01:55.140Z,30.87
2018-08-16T08:02:55.408Z,30.97
2018-08-16T08:03:55.424Z,31.22
2018-08-16T08:04:55.422Z,31.54
2018-08-16T08:05:55.436Z,31.66
2018-08-16T08:06:55.722Z,31.89
2018-08-16T08:07:55.442Z,31.87
2018-08-16T08:08:55.577Z,32.21
2018-08-16T08:09:55.990Z,32.31
2018-08-16T08:10:55.724Z,32.29
2018-08-16T08:11:55.736Z,32.33
2018-08-16T08:12:55.224Z,32.41
2018-08-16T08:13:55.477Z,32.55
2018-08-16T08:14:55.235Z,32.73
2018-08-16T08:15:55.507Z,32.55
2018-08-16T08:16:55.508Z,32.55
2018-08-16T08:17:55.765Z,32.8
2018-08-16T08:18:55.791Z,32.9
2018-08-16T08:19:55.784Z,32.95
2018-08-16T08:20:55.581Z,33
2018-08-16T08:21:55.292Z,33.02
2018-08-16T08:22:55.548Z,33.31
2018-08-16T08:23:55.559Z,33.36
2018-08-16T08:24:55.566Z,33.24
2018-08-16T08:25:55.832Z,33.28
2018-08-16T08:26:55.368Z,33.08
2018-08-16T08:27:55.615Z,33.19
2018-08-16T08:28:55.880Z,33.09
2018-08-16T08:29:55.614Z,32.71
2018-08-16T08:30:55.621Z,32.52
2018-08-16T08:31:55.886Z,32.48
2018-08-16T08:32:55.632Z,32.48
2018-08-16T08:33:55.660Z,32.51
2018-08-16T08:34:55.910Z,32.6
2018-08-16T08:35:55.676Z,32.59
2018-08-16T08:36:55.915Z,32.7
2018-08-16T08:37:55.678Z,32.85
2018-08-16T08:38:55.854Z,33.19
2018-08-16T08:39:55.975Z,33.45
2018-08-16T08:40:55.973Z,33.55
2018-08-16T08:41:55.973Z,33.59
2018-08-16T08:42:55.976Z,33.53
2018-08-16T08:43:55.474Z,33.49
2018-08-16T08:44:55.737Z,33.15
2018-08-16T08:45:55.738Z,32.75
2018-08-16T08:46:56.023Z,32.29
2018-08-16T08:47:56.013Z,31.7
2018-08-16T08:48:55.770Z,30.96
2018-08-16T08:49:55.783Z,30.32
2018-08-16T08:50:56.036Z,29.76
2018-08-16T08:51:55.812Z,29.42
2018-08-16T08:52:56.067Z,29.22
2018-08-16T08:53:56.056Z,29.01
2018-08-16T08:54:56.140Z,28.72
2018-08-16T08:55:56.083Z,28.45
2018-08-16T08:56:56.083Z,28.45
2018-08-16T08:57:55.845Z,28.39
2018-08-16T08:58:56.114Z,28.27
2018-08-16T08:59:55.615Z,28.41
2018-08-16T09:00:55.897Z,28.27
2018-08-16T09:01:55.864Z,28.23
2018-08-16T09:02:55.871Z,28.2
2018-08-16T09:03:55.613Z,28.15
2018-08-16T09:04:56.132Z,28.12
2018-08-16T09:05:56.144Z,28.1
2018-08-16T09:06:56.359Z,27.98
2018-08-16T09:07:56.164Z,27.9
2018-08-16T09:08:55.920Z,27.85
2018-08-16T09:09:56.187Z,27.85
2018-08-16T09:10:55.677Z,27.89
2018-08-16T09:11:55.929Z,27.83
2018-08-16T09:12:56.193Z,27.85
2018-08-16T09:13:56.208Z,27.73
2018-08-16T09:14:56.216Z,27.8
2018-08-16T09:15:55.946Z,27.87
2018-08-16T09:16:56.232Z,27.93
2018-08-16T09:17:56.244Z,28.08
2018-08-16T09:18:56.257Z,28.1
2018-08-16T09:19:56.525Z,28.08
2018-08-16T09:20:55.737Z,27.92
2018-08-16T09:21:56.269Z,27.92
2018-08-16T09:22:55.995Z,27.73
2018-08-16T09:23:56.397Z,27.8
2018-08-16T09:24:56.264Z,27.73
2018-08-16T09:25:56.272Z,27.6
2018-08-16T09:26:55.778Z,27.7
2018-08-16T09:27:56.023Z,27.67
2018-08-16T09:28:56.282Z,27.82
2018-08-16T09:29:56.031Z,27.7
2018-08-16T09:30:55.785Z,27.8
2018-08-16T09:31:56.302Z,27.73
2018-08-16T09:32:56.299Z,27.71
2018-08-16T09:33:56.054Z,27.83
2018-08-16T09:34:56.053Z,27.9
2018-08-16T09:35:56.069Z,28.01
2018-08-16T09:36:56.064Z,27.92
2018-08-16T09:37:56.330Z,27.98
2018-08-16T09:38:56.081Z,27.98
2018-08-16T09:39:56.376Z,28.05
2018-08-16T09:40:56.339Z,28.17
2018-08-16T09:41:56.345Z,28.27
2018-08-16T09:42:55.849Z,28.2
2018-08-16T09:43:56.100Z,28.22
2018-08-16T09:44:55.863Z,28.22
2018-08-16T09:45:56.359Z,28.23
2018-08-16T09:46:56.125Z,28.12
2018-08-16T09:47:55.864Z,28.11
2018-08-16T09:48:56.141Z,28.04
2018-08-16T09:49:56.144Z,28.02
2018-08-16T09:50:56.155Z,28.05
2018-08-16T09:51:56.398Z,28.1
2018-08-16T09:52:56.164Z,28.1
2018-08-16T09:53:56.410Z,28.17
2018-08-16T09:54:56.161Z,28.37
2018-08-16T09:55:55.905Z,28.41
2018-08-16T09:56:56.182Z,28.49
2018-08-16T09:57:56.442Z,28.45
2018-08-16T09:58:56.189Z,28.6
2018-08-16T09:59:56.441Z,28.57
2018-08-16T10:00:56.443Z,28.72
2018-08-16T10:01:55.948Z,28.84
2018-08-16T10:02:56.470Z,28.96
2018-08-16T10:03:56.461Z,28.98
2018-08-16T10:04:56.211Z,28.98
2018-08-16T10:05:55.956Z,28.88
2018-08-16T10:06:56.491Z,28.88
2018-08-16T10:07:56.484Z,28.89
2018-08-16T10:08:56.489Z,29.04
2018-08-16T10:09:56.240Z,28.96
2018-08-16T10:10:56.505Z,29.04
2018-08-16T10:11:55.990Z,29.13
2018-08-16T10:12:56.257Z,29.12
2018-08-16T10:13:56.258Z,29.02
2018-08-16T10:14:56.532Z,28.98
2018-08-16T10:15:56.532Z,28.94
2018-08-16T10:16:56.300Z,28.86
2018-08-16T10:17:56.284Z,28.72
2018-08-16T10:18:56.533Z,28.57
2018-08-16T10:19:56.553Z,28.51
2018-08-16T10:20:56.858Z,28.44
2018-08-16T10:21:56.323Z,28.27
2018-08-16T10:22:56.559Z,28.22
2018-08-16T10:23:56.314Z,28.2
2018-08-16T10:24:56.581Z,28.2
2018-08-16T10:25:56.060Z,28.2
2018-08-16T10:26:56.730Z,28.26
2018-08-16T10:27:56.600Z,28.22
2018-08-16T10:28:56.595Z,28.26
2018-08-16T10:29:56.589Z,28.23
2018-08-16T10:30:56.351Z,28.45
2018-08-16T10:31:56.349Z,28.49
2018-08-16T10:32:56.616Z,28.7
2018-08-16T10:33:56.097Z,28.84
2018-08-16T10:34:56.106Z,28.98
2018-08-16T10:35:56.632Z,29.05
2018-08-16T10:36:56.631Z,29.02
2018-08-16T10:37:56.121Z,29.24
2018-08-16T10:38:56.406Z,29.29
2018-08-16T10:39:56.650Z,29.35
2018-08-16T10:40:56.134Z,29.42
2018-08-16T10:41:56.165Z,29.36
2018-08-16T10:42:56.665Z,29.2
2018-08-16T10:43:56.411Z,29.13
2018-08-16T10:44:57.215Z,29.07
2018-08-16T10:45:56.418Z,29.1
2018-08-16T10:46:56.425Z,29.02
2018-08-16T10:47:56.699Z,28.94
2018-08-16T10:48:56.437Z,29.02
2018-08-16T10:49:56.707Z,28.96
2018-08-16T10:50:56.709Z,29.02
2018-08-16T10:51:56.713Z,29.01
2018-08-16T10:52:56.737Z,29.04
2018-08-16T10:53:56.789Z,29.05
2018-08-16T10:54:56.727Z,29.08
2018-08-16T10:55:56.483Z,29.14
2018-08-16T10:56:56.479Z,29.31
2018-08-16T10:57:56.749Z,29.41
2018-08-16T10:58:56.498Z,29.5
2018-08-16T10:59:56.493Z,29.65
2018-08-16T11:00:56.508Z,29.5
2018-08-16T11:01:56.771Z,29.42
2018-08-16T11:02:56.779Z,29.39
2018-08-16T11:03:56.793Z,29.17
2018-08-16T11:04:56.272Z,29.08
2018-08-16T11:05:56.598Z,29.01
2018-08-16T11:06:56.540Z,29.01
2018-08-16T11:07:56.592Z,29.05
2018-08-16T11:08:56.805Z,28.98
2018-08-16T11:09:56.548Z,29.01
2018-08-16T11:10:56.552Z,29.1
2018-08-16T11:11:56.559Z,29.22
2018-08-16T11:12:56.816Z,29.22
2018-08-16T11:13:56.830Z,29.24
2018-08-16T11:14:56.828Z,29.23
2018-08-16T11:15:56.320Z,29.26
2018-08-16T11:16:56.323Z,29.2
2018-08-16T11:17:56.340Z,29.22
2018-08-16T11:18:56.664Z,29.17
2018-08-16T11:19:56.603Z,29.05
2018-08-16T11:20:56.607Z,29.13
2018-08-16T11:21:57.008Z,29.02
2018-08-16T11:22:56.619Z,28.98
2018-08-16T11:23:56.630Z,28.86
2018-08-16T11:24:56.876Z,28.89
2018-08-16T11:25:56.608Z,28.88
2018-08-16T11:26:56.608Z,28.98
2018-08-16T11:27:56.628Z,28.96
2018-08-16T11:28:56.924Z,28.89
2018-08-16T11:29:56.669Z,28.91
2018-08-16T11:30:56.667Z,29.04
2018-08-16T11:31:56.682Z,29.04
2018-08-16T11:32:56.926Z,29.26
2018-08-16T11:33:56.931Z,29.29
2018-08-16T11:34:56.926Z,29.27
2018-08-16T11:35:56.945Z,29.29
2018-08-16T11:36:56.694Z,29.31
2018-08-16T11:37:57.339Z,29.24
2018-08-16T11:38:56.694Z,29.35
2018-08-16T11:39:56.449Z,29.41
2018-08-16T11:40:56.975Z,29.54
2018-08-16T11:41:56.463Z,29.59
2018-08-16T11:42:56.995Z,29.72
2018-08-16T11:43:56.999Z,29.66
2018-08-16T11:44:56.996Z,29.71
2018-08-16T11:45:57.007Z,29.79
2018-08-16T11:46:56.730Z,29.69
2018-08-16T11:47:56.746Z,29.73
2018-08-16T11:48:57.002Z,29.63
2018-08-16T11:49:57.011Z,29.54
2018-08-16T11:50:57.018Z,29.51
2018-08-16T11:51:56.780Z,29.53
2018-08-16T11:52:56.767Z,29.44
2018-08-16T11:53:56.798Z,29.36
2018-08-16T11:54:56.781Z,29.38
2018-08-16T11:55:56.531Z,29.24
2018-08-16T11:56:56.536Z,29.29
2018-08-16T11:57:56.809Z,29.26
2018-08-16T11:58:57.063Z,29.32
2018-08-16T11:59:56.817Z,29.44
2018-08-16T12:00:57.089Z,29.57
2018-08-16T12:01:56.603Z,29.72
2018-08-16T12:02:56.839Z,29.78
2018-08-16T12:03:57.103Z,29.76
2018-08-16T12:04:56.832Z,29.75
2018-08-16T12:05:56.838Z,29.78
2018-08-16T12:06:57.103Z,29.76
2018-08-16T12:07:57.112Z,29.84
2018-08-16T12:08:56.883Z,29.79
2018-08-16T12:09:56.880Z,29.82
2018-08-16T12:10:56.616Z,29.81
2018-08-16T12:11:56.887Z,29.88
2018-08-16T12:12:57.152Z,29.88
2018-08-16T12:13:56.633Z,29.97
2018-08-16T12:14:57.145Z,30
2018-08-16T12:15:56.638Z,29.94
2018-08-16T12:16:57.167Z,30.02
2018-08-16T12:17:57.171Z,29.98
2018-08-16T12:18:56.917Z,30.09
2018-08-16T12:19:56.930Z,29.98
2018-08-16T12:20:56.980Z,29.98
2018-08-16T12:21:56.917Z,30
2018-08-16T12:22:56.675Z,30.1
2018-08-16T12:23:57.224Z,29.97
2018-08-16T12:24:56.944Z,29.97
2018-08-16T12:25:57.207Z,29.93
2018-08-16T12:26:56.948Z,29.9
2018-08-16T12:27:56.711Z,29.86
2018-08-16T12:28:57.042Z,29.93
2018-08-16T12:29:57.229Z,30
2018-08-16T12:30:57.225Z,29.95
2018-08-16T12:31:56.725Z,29.97
2018-08-16T12:32:57.244Z,30
2018-08-16T12:33:56.985Z,30
2018-08-16T12:34:57.597Z,30.02
2018-08-16T12:35:57.269Z,30
2018-08-16T12:36:57.002Z,30.13
2018-08-16T12:37:57.135Z,30.15
2018-08-16T12:38:57.027Z,30.15
2018-08-16T12:39:56.770Z,30.13
2018-08-16T12:40:57.392Z,30.18
2018-08-16T12:41:56.777Z,30.27
2018-08-16T12:42:57.294Z,30.18
2018-08-16T12:43:57.316Z,30.08
2018-08-16T12:44:57.081Z,30.03
2018-08-16T12:45:57.071Z,29.98
2018-08-16T12:46:56.796Z,30.05
2018-08-16T12:47:57.441Z,29.97
2018-08-16T12:48:57.086Z,30.06
2018-08-16T12:49:57.358Z,30.12
2018-08-16T12:50:57.349Z,30.15
2018-08-16T12:51:57.360Z,30.13
2018-08-16T12:52:57.111Z,30.18
2018-08-16T12:53:57.133Z,30.23
2018-08-16T12:54:57.105Z,30.13
2018-08-16T12:55:57.108Z,30.16
2018-08-16T12:56:56.914Z,30.19